sensor_id;sensor_type;location;lat;lon;timestamp;pressure;altitude;pressure_sealevel;temperature;humidity
49216;BME280;45943;53.148;8.204;2023-11-21T00:01:19;101010.03;;;12.74;100.00
49216;BME280;45943;53.148;8.204;2023-11-21T00:03:45;101014.69;;;12.72;100.00
49216;BME280;45943;53.148;8.204;2023-11-21T00:06:11;101021.63;;;12.75;100.00
49216;BME280;45943;53.148;8.204;2023-11-21T00:08:37;101020.78;;;12.74;100.00
49216;BME280;45943;53.148;8.204;2023-11-21T00:11:03;101025.19;;;12.75;100.00
49216;BME280;45943;53.148;8.204;2023-11-21T00:13:31;101027.72;;;12.77;100.00
49216;BME280;45943;53.148;8.204;2023-11-21T00:15:58;101021.34;;;12.78;100.00
49216;BME280;45943;53.148;8.204;2023-11-21T00:18:24;101023.81;;;12.81;100.00
49216;BME280;45943;53.148;8.204;2023-11-21T00:20:50;101023.81;;;12.81;100.00
49216;BME280;45943;53.148;8.204;2023-11-21T00:23:16;101029.34;;;12.79;100.00
49216;BME280;45943;53.148;8.204;2023-11-21T00:25:43;101033.97;;;12.77;100.00
49216;BME280;45943;53.148;8.204;2023-11-21T00:28:09;101030.56;;;12.75;100.00
49216;BME280;45943;53.148;8.204;2023-11-21T00:30:35;101028.00;;;12.74;100.00
49216;BME280;45943;53.148;8.204;2023-11-21T00:33:01;101036.94;;;12.74;100.00
49216;BME280;45943;53.148;8.204;2023-11-21T00:35:27;101039.63;;;12.74;100.00
49216;BME280;45943;53.148;8.204;2023-11-21T00:37:53;101043.03;;;12.76;100.00
49216;BME280;45943;53.148;8.204;2023-11-21T00:40:19;101040.63;;;12.73;100.00
49216;BME280;45943;53.148;8.204;2023-11-21T00:42:46;101045.16;;;12.73;100.00
49216;BME280;45943;53.148;8.204;2023-11-21T00:45:12;101043.44;;;12.72;100.00
49216;BME280;45943;53.148;8.204;2023-11-21T00:47:38;101035.38;;;12.72;100.00
49216;BME280;45943;53.148;8.204;2023-11-21T00:50:05;101050.41;;;12.74;100.00
49216;BME280;45943;53.148;8.204;2023-11-21T00:52:34;101047.84;;;12.73;100.00
49216;BME280;45943;53.148;8.204;2023-11-21T00:55:01;101047.69;;;12.74;100.00
49216;BME280;45943;53.148;8.204;2023-11-21T00:57:28;101051.53;;;12.72;100.00
49216;BME280;45943;53.148;8.204;2023-11-21T00:59:55;101049.53;;;12.74;100.00
49216;BME280;45943;53.148;8.204;2023-11-21T01:02:21;101046.84;;;12.74;100.00
49216;BME280;45943;53.148;8.204;2023-11-21T01:04:47;101047.69;;;12.74;100.00
49216;BME280;45943;53.148;8.204;2023-11-21T01:07:13;101057.63;;;12.74;100.00
49216;BME280;45943;53.148;8.204;2023-11-21T01:09:39;101055.78;;;12.74;100.00
49216;BME280;45943;53.148;8.204;2023-11-21T01:12:05;101063.56;;;12.77;100.00
49216;BME280;45943;53.148;8.204;2023-11-21T01:14:32;101057.47;;;12.75;100.00
49216;BME280;45943;53.148;8.204;2023-11-21T01:16:58;101069.09;;;12.76;100.00
49216;BME280;45943;53.148;8.204;2023-11-21T01:19:24;101071.56;;;12.79;100.00
49216;BME280;45943;53.148;8.204;2023-11-21T01:21:50;101075.94;;;12.80;100.00
49216;BME280;45943;53.148;8.204;2023-11-21T01:24:17;101093.72;;;12.71;100.00
49216;BME280;45943;53.148;8.204;2023-11-21T01:26:43;101096.34;;;12.61;100.00
49216;BME280;45943;53.148;8.204;2023-11-21T01:29:13;101101.59;;;12.63;100.00
49216;BME280;45943;53.148;8.204;2023-11-21T01:31:40;101104.03;;;12.66;100.00
49216;BME280;45943;53.148;8.204;2023-11-21T01:34:07;101111.09;;;12.67;100.00
49216;BME280;45943;53.148;8.204;2023-11-21T01:36:33;101116.38;;;12.69;100.00
49216;BME280;45943;53.148;8.204;2023-11-21T01:38:59;101112.81;;;12.68;100.00
49216;BME280;45943;53.148;8.204;2023-11-21T01:41:28;101117.25;;;12.69;100.00
49216;BME280;45943;53.148;8.204;2023-11-21T01:43:55;101116.56;;;12.77;100.00
49216;BME280;45943;53.148;8.204;2023-11-21T01:46:21;101112.78;;;12.79;100.00
49216;BME280;45943;53.148;8.204;2023-11-21T01:48:48;101119.47;;;12.85;100.00
49216;BME280;45943;53.148;8.204;2023-11-21T01:51:15;101121.78;;;12.89;100.00
49216;BME280;45943;53.148;8.204;2023-11-21T01:53:42;101126.41;;;12.87;100.00
49216;BME280;45943;53.148;8.204;2023-11-21T01:56:08;101131.94;;;12.86;100.00
49216;BME280;45943;53.148;8.204;2023-11-21T01:58:35;101123.72;;;12.87;100.00
49216;BME280;45943;53.148;8.204;2023-11-21T02:01:01;101134.13;;;12.92;100.00
49216;BME280;45943;53.148;8.204;2023-11-21T02:03:27;101136.53;;;12.95;100.00
49216;BME280;45943;53.148;8.204;2023-11-21T02:05:53;101135.31;;;12.99;100.00
49216;BME280;45943;53.148;8.204;2023-11-21T02:08:19;101138.84;;;13.00;100.00
49216;BME280;45943;53.148;8.204;2023-11-21T02:10:45;101141.78;;;12.97;100.00
49216;BME280;45943;53.148;8.204;2023-11-21T02:13:11;101146.94;;;13.00;100.00
49216;BME280;45943;53.148;8.204;2023-11-21T02:15:37;101153.03;;;13.02;100.00
49216;BME280;45943;53.148;8.204;2023-11-21T02:18:04;101150.19;;;13.03;100.00
49216;BME280;45943;53.148;8.204;2023-11-21T02:20:31;101150.19;;;13.03;100.00
49216;BME280;45943;53.148;8.204;2023-11-21T02:23:00;101151.06;;;13.04;100.00
49216;BME280;45943;53.148;8.204;2023-11-21T02:25:27;101163.38;;;13.06;100.00
49216;BME280;45943;53.148;8.204;2023-11-21T02:27:55;101156.16;;;13.07;100.00
49216;BME280;45943;53.148;8.204;2023-11-21T02:30:22;101156.16;;;13.07;100.00
49216;BME280;45943;53.148;8.204;2023-11-21T02:32:48;101159.97;;;13.04;100.00
49216;BME280;45943;53.148;8.204;2023-11-21T02:35:14;101157.28;;;13.04;100.00
49216;BME280;45943;53.148;8.204;2023-11-21T02:37:41;101164.50;;;13.04;100.00
49216;BME280;45943;53.148;8.204;2023-11-21T02:40:08;101175.44;;;13.02;100.00
49216;BME280;45943;53.148;8.204;2023-11-21T02:42:38;101171.59;;;13.05;100.00
49216;BME280;45943;53.148;8.204;2023-11-21T02:45:06;101176.75;;;13.08;100.00
49216;BME280;45943;53.148;8.204;2023-11-21T02:47:32;101177.72;;;13.07;100.00
49216;BME280;45943;53.148;8.204;2023-11-21T02:49:59;101177.25;;;13.02;100.00
49216;BME280;45943;53.148;8.204;2023-11-21T02:52:25;101176.56;;;13.00;100.00
49216;BME280;45943;53.148;8.204;2023-11-21T02:54:51;101180.22;;;12.99;100.00
49216;BME280;45943;53.148;8.204;2023-11-21T02:57:17;101178.13;;;13.02;100.00
49216;BME280;45943;53.148;8.204;2023-11-21T02:59:44;101181.53;;;13.04;100.00
49216;BME280;45943;53.148;8.204;2023-11-21T03:02:10;101182.66;;;13.02;100.00
49216;BME280;45943;53.148;8.204;2023-11-21T03:04:36;101185.63;;;12.99;100.00
49216;BME280;45943;53.148;8.204;2023-11-21T03:07:02;101185.84;;;12.96;100.00
49216;BME280;45943;53.148;8.204;2023-11-21T03:09:29;101184.88;;;12.97;100.00
49216;BME280;45943;53.148;8.204;2023-11-21T03:11:55;101185.63;;;12.99;100.00
49216;BME280;45943;53.148;8.204;2023-11-21T03:14:21;101187.31;;;13.00;100.00
49216;BME280;45943;53.148;8.204;2023-11-21T03:16:48;101185.63;;;12.99;100.00
49216;BME280;45943;53.148;8.204;2023-11-21T03:19:15;101191.09;;;12.97;100.00
49216;BME280;45943;53.148;8.204;2023-11-21T03:21:41;101188.03;;;13.02;100.00
49216;BME280;45943;53.148;8.204;2023-11-21T03:24:07;101199.25;;;13.07;100.00
49216;BME280;45943;53.148;8.204;2023-11-21T03:26:33;101207.34;;;13.07;100.00
49216;BME280;45943;53.148;8.204;2023-11-21T03:28:59;101208.31;;;13.06;100.00
49216;BME280;45943;53.148;8.204;2023-11-21T03:31:25;101213.97;;;13.03;100.00
49216;BME280;45943;53.148;8.204;2023-11-21T03:33:52;101218.78;;;12.99;100.00
49216;BME280;45943;53.148;8.204;2023-11-21T03:36:19;101219.03;;;12.96;100.00
49216;BME280;45943;53.148;8.204;2023-11-21T03:38:45;101218.69;;;12.89;100.00
49216;BME280;45943;53.148;8.204;2023-11-21T03:41:11;101225.56;;;12.82;100.00
49216;BME280;45943;53.148;8.204;2023-11-21T03:43:37;101231.47;;;12.76;100.00
49216;BME280;45943;53.148;8.204;2023-11-21T03:46:03;101232.44;;;12.75;100.00
49216;BME280;45943;53.148;8.204;2023-11-21T03:48:29;101234.91;;;12.67;100.00
49216;BME280;45943;53.148;8.204;2023-11-21T03:50:55;101235.91;;;12.66;100.00
49216;BME280;45943;53.148;8.204;2023-11-21T03:53:21;101233.38;;;12.53;100.00
49216;BME280;45943;53.148;8.204;2023-11-21T03:55:47;101240.88;;;12.50;100.00
49216;BME280;45943;53.148;8.204;2023-11-21T03:58:13;101241.72;;;12.50;100.00
49216;BME280;45943;53.148;8.204;2023-11-21T04:00:39;101247.63;;;12.33;100.00
49216;BME280;45943;53.148;8.204;2023-11-21T04:03:05;101249.81;;;12.28;100.00
49216;BME280;45943;53.148;8.204;2023-11-21T04:05:31;101259.84;;;12.26;100.00
49216;BME280;45943;53.148;8.204;2023-11-21T04:07:57;101265.84;;;12.29;100.00
49216;BME280;45943;53.148;8.204;2023-11-21T04:10:23;101271.81;;;12.33;100.00
49216;BME280;45943;53.148;8.204;2023-11-21T04:12:49;101272.41;;;12.37;100.00
49216;BME280;45943;53.148;8.204;2023-11-21T04:15:15;101274.25;;;12.36;100.00
49216;BME280;45943;53.148;8.204;2023-11-21T04:17:41;101282.81;;;12.41;100.00
49216;BME280;45943;53.148;8.204;2023-11-21T04:20:08;101291.75;;;12.42;100.00
49216;BME280;45943;53.148;8.204;2023-11-21T04:22:38;101289.06;;;12.30;100.00
49216;BME280;45943;53.148;8.204;2023-11-21T04:25:13;101291.88;;;12.29;100.00
49216;BME280;45943;53.148;8.204;2023-11-21T04:27:40;101300.94;;;12.17;100.00
49216;BME280;45943;53.148;8.204;2023-11-21T04:30:09;101295.56;;;12.05;100.00
49216;BME280;45943;53.148;8.204;2023-11-21T04:32:36;101311.94;;;12.14;100.00
49216;BME280;45943;53.148;8.204;2023-11-21T04:35:03;101311.81;;;12.04;100.00
49216;BME280;45943;53.148;8.204;2023-11-21T04:37:29;101319.50;;;12.09;100.00
49216;BME280;45943;53.148;8.204;2023-11-21T04:39:55;101324.75;;;11.99;100.00
49216;BME280;45943;53.148;8.204;2023-11-21T04:42:21;101332.09;;;11.97;100.00
49216;BME280;45943;53.148;8.204;2023-11-21T04:44:48;101324.38;;;11.81;100.00
49216;BME280;45943;53.148;8.204;2023-11-21T04:47:14;101336.59;;;11.85;100.00
49216;BME280;45943;53.148;8.204;2023-11-21T04:49:42;101334.28;;;11.81;100.00
49216;BME280;45943;53.148;8.204;2023-11-21T04:52:08;101334.31;;;11.68;100.00
49216;BME280;45943;53.148;8.204;2023-11-21T04:54:35;101335.19;;;11.68;100.00
49216;BME280;45943;53.148;8.204;2023-11-21T04:57:01;101340.34;;;11.71;100.00
49216;BME280;45943;53.148;8.204;2023-11-21T04:59:27;101349.59;;;11.78;100.00
49216;BME280;45943;53.148;8.204;2023-11-21T05:01:53;101345.97;;;11.80;100.00
49216;BME280;45943;53.148;8.204;2023-11-21T05:04:19;101345.88;;;11.81;100.00
49216;BME280;45943;53.148;8.204;2023-11-21T05:06:48;101346.88;;;11.80;100.00
49216;BME280;45943;53.148;8.204;2023-11-21T05:09:14;101357.38;;;11.83;100.00
49216;BME280;45943;53.148;8.204;2023-11-21T05:11:41;101361.19;;;11.92;100.00
49216;BME280;45943;53.148;8.204;2023-11-21T05:14:07;101366.69;;;11.90;100.00
49216;BME280;45943;53.148;8.204;2023-11-21T05:16:34;101366.91;;;11.87;100.00
49216;BME280;45943;53.148;8.204;2023-11-21T05:19:01;101379.72;;;11.84;100.00
49216;BME280;45943;53.148;8.204;2023-11-21T05:21:27;101381.06;;;11.89;100.00
49216;BME280;45943;53.148;8.204;2023-11-21T05:23:55;101391.47;;;11.94;100.00
49216;BME280;45943;53.148;8.204;2023-11-21T05:26:21;101392.59;;;11.91;100.00
49216;BME280;45943;53.148;8.204;2023-11-21T05:28:49;101399.44;;;11.95;100.00
49216;BME280;45943;53.148;8.204;2023-11-21T05:31:15;101399.66;;;11.92;100.00
49216;BME280;45943;53.148;8.204;2023-11-21T05:33:41;101400.25;;;11.85;100.00
49216;BME280;45943;53.148;8.204;2023-11-21T05:36:07;101406.75;;;11.93;100.00
49216;BME280;45943;53.148;8.204;2023-11-21T05:38:35;101407.50;;;11.95;100.00
49216;BME280;45943;53.148;8.204;2023-11-21T05:41:02;101413.59;;;11.97;100.00
49216;BME280;45943;53.148;8.204;2023-11-21T05:43:29;101427.53;;;11.91;100.00
49216;BME280;45943;53.148;8.204;2023-11-21T05:45:56;101420.78;;;11.86;100.00
49216;BME280;45943;53.148;8.204;2023-11-21T05:48:22;101424.56;;;11.83;100.00
49216;BME280;45943;53.148;8.204;2023-11-21T05:50:48;101431.72;;;11.71;100.00
49216;BME280;45943;53.148;8.204;2023-11-21T05:53:15;101437.41;;;11.67;100.00
49216;BME280;45943;53.148;8.204;2023-11-21T05:55:42;101443.53;;;11.69;100.00
49216;BME280;45943;53.148;8.204;2023-11-21T05:58:08;101446.84;;;11.72;100.00
49216;BME280;45943;53.148;8.204;2023-11-21T06:00:34;101445.88;;;11.73;100.00
49216;BME280;45943;53.148;8.204;2023-11-21T06:03:01;101458.59;;;11.71;100.00
49216;BME280;45943;53.148;8.204;2023-11-21T06:05:28;101452.69;;;11.66;100.00
49216;BME280;45943;53.148;8.204;2023-11-21T06:07:55;101468.13;;;11.75;100.00
49216;BME280;45943;53.148;8.204;2023-11-21T06:10:24;101464.06;;;11.70;100.00
49216;BME280;45943;53.148;8.204;2023-11-21T06:12:50;101471.53;;;11.77;100.00
49216;BME280;45943;53.148;8.204;2023-11-21T06:15:17;101476.31;;;11.74;100.00
49216;BME280;45943;53.148;8.204;2023-11-21T06:17:45;101484.44;;;11.61;100.00
49216;BME280;45943;53.148;8.204;2023-11-21T06:20:15;101489.44;;;11.66;100.00
49216;BME280;45943;53.148;8.204;2023-11-21T06:22:41;101495.69;;;11.66;100.00
49216;BME280;45943;53.148;8.204;2023-11-21T06:25:08;101500.75;;;11.58;100.00
49216;BME280;45943;53.148;8.204;2023-11-21T06:27:36;101506.00;;;11.60;100.00
49216;BME280;45943;53.148;8.204;2023-11-21T06:30:06;101503.06;;;11.52;100.00
49216;BME280;45943;53.148;8.204;2023-11-21T06:32:34;101512.41;;;11.46;100.00
49216;BME280;45943;53.148;8.204;2023-11-21T06:35:04;101524.81;;;11.36;100.00
49216;BME280;45943;53.148;8.204;2023-11-21T06:37:31;101526.59;;;11.48;100.00
49216;BME280;45943;53.148;8.204;2023-11-21T06:39:58;101534.44;;;11.51;100.00
49216;BME280;45943;53.148;8.204;2023-11-21T06:42:25;101531.84;;;11.49;100.00
49216;BME280;45943;53.148;8.204;2023-11-21T06:44:51;101542.41;;;11.40;100.00
49216;BME280;45943;53.148;8.204;2023-11-21T06:47:18;101545.44;;;11.35;100.00
49216;BME280;45943;53.148;8.204;2023-11-21T06:49:46;101551.25;;;11.29;100.00
49216;BME280;45943;53.148;8.204;2023-11-21T06:52:13;101552.53;;;11.36;100.00
49216;BME280;45943;53.148;8.204;2023-11-21T06:54:40;101554.72;;;11.31;100.00
49216;BME280;45943;53.148;8.204;2023-11-21T06:57:06;101551.16;;;11.31;100.00
49216;BME280;45943;53.148;8.204;2023-11-21T06:59:32;101563.94;;;11.27;100.00
49216;BME280;45943;53.148;8.204;2023-11-21T07:01:58;101568.03;;;11.33;100.00
49216;BME280;45943;53.148;8.204;2023-11-21T07:07:37;101581.34;;;11.34;100.00
49216;BME280;45943;53.148;8.204;2023-11-21T07:10:03;101587.13;;;11.28;100.00
49216;BME280;45943;53.148;8.204;2023-11-21T07:12:30;101586.81;;;11.20;100.00
49216;BME280;45943;53.148;8.204;2023-11-21T07:15:04;101585.09;;;11.19;100.00
49216;BME280;45943;53.148;8.204;2023-11-21T07:17:35;101599.31;;;11.21;100.00
49216;BME280;45943;53.148;8.204;2023-11-21T07:20:01;101607.38;;;11.21;100.00
49216;BME280;45943;53.148;8.204;2023-11-21T07:22:28;101605.53;;;11.22;100.00
49216;BME280;45943;53.148;8.204;2023-11-21T07:24:55;101610.78;;;11.23;100.00
49216;BME280;45943;53.148;8.204;2023-11-21T07:27:22;101617.13;;;11.22;100.00
49216;BME280;45943;53.148;8.204;2023-11-21T07:29:48;101609.94;;;11.23;100.00
49216;BME280;45943;53.148;8.204;2023-11-21T07:32:14;101623.56;;;11.19;100.00
49216;BME280;45943;53.148;8.204;2023-11-21T07:34:40;101617.56;;;11.16;100.00
49216;BME280;45943;53.148;8.204;2023-11-21T07:37:09;101627.56;;;11.14;100.00
49216;BME280;45943;53.148;8.204;2023-11-21T07:39:35;101633.13;;;11.11;100.00
49216;BME280;45943;53.148;8.204;2023-11-21T07:42:02;101634.94;;;11.10;100.00
49216;BME280;45943;53.148;8.204;2023-11-21T07:44:28;101641.09;;;11.12;100.00
49216;BME280;45943;53.148;8.204;2023-11-21T07:46:54;101648.38;;;11.10;100.00
49216;BME280;45943;53.148;8.204;2023-11-21T07:49:23;101645.47;;;11.01;100.00
49216;BME280;45943;53.148;8.204;2023-11-21T07:51:50;101653.31;;;11.04;100.00
49216;BME280;45943;53.148;8.204;2023-11-21T07:54:16;101663.72;;;11.08;100.00
49216;BME280;45943;53.148;8.204;2023-11-21T07:56:42;101676.63;;;11.16;100.00
49216;BME280;45943;53.148;8.204;2023-11-21T07:59:08;101681.59;;;11.22;100.00
49216;BME280;45943;53.148;8.204;2023-11-21T08:01:34;101689.53;;;11.24;100.00
49216;BME280;45943;53.148;8.204;2023-11-21T08:04:00;101691.88;;;11.28;100.00
49216;BME280;45943;53.148;8.204;2023-11-21T08:06:29;101689.84;;;11.19;100.00
49216;BME280;45943;53.148;8.204;2023-11-21T08:08:56;101698.75;;;11.19;100.00
49216;BME280;45943;53.148;8.204;2023-11-21T08:11:22;101701.88;;;11.26;100.00
49216;BME280;45943;53.148;8.204;2023-11-21T08:13:48;101704.91;;;11.34;100.00
49216;BME280;45943;53.148;8.204;2023-11-21T08:16:15;101712.72;;;11.37;100.00
49216;BME280;45943;53.148;8.204;2023-11-21T08:18:41;101714.25;;;11.41;100.00
49216;BME280;45943;53.148;8.204;2023-11-21T08:21:07;101718.00;;;11.39;100.00
49216;BME280;45943;53.148;8.204;2023-11-21T08:23:33;101725.53;;;11.34;100.00
49216;BME280;45943;53.148;8.204;2023-11-21T08:26:00;101717.03;;;11.14;100.00
49216;BME280;45943;53.148;8.204;2023-11-21T08:28:27;101712.97;;;11.22;100.00
49216;BME280;45943;53.148;8.204;2023-11-21T08:30:53;101713.69;;;11.24;100.00
49216;BME280;45943;53.148;8.204;2023-11-21T08:33:22;101719.94;;;11.24;100.00
49216;BME280;45943;53.148;8.204;2023-11-21T08:35:48;101729.47;;;11.28;100.00
49216;BME280;45943;53.148;8.204;2023-11-21T08:38:14;101734.34;;;11.23;100.00
49216;BME280;45943;53.148;8.204;2023-11-21T08:40:40;101739.81;;;11.22;100.00
49216;BME280;45943;53.148;8.204;2023-11-21T08:43:06;101742.81;;;11.30;100.00
49216;BME280;45943;53.148;8.204;2023-11-21T08:45:33;101751.53;;;11.46;100.00
49216;BME280;45943;53.148;8.204;2023-11-21T08:48:00;101753.25;;;11.60;100.00
49216;BME280;45943;53.148;8.204;2023-11-21T08:50:27;101753.69;;;11.54;100.00
49216;BME280;45943;53.148;8.204;2023-11-21T08:52:53;101766.56;;;11.48;100.00
49216;BME280;45943;53.148;8.204;2023-11-21T08:55:19;101769.59;;;11.44;100.00
49216;BME280;45943;53.148;8.204;2023-11-21T08:57:45;101775.28;;;11.52;100.00
49216;BME280;45943;53.148;8.204;2023-11-21T09:00:12;101776.13;;;11.40;100.00
49216;BME280;45943;53.148;8.204;2023-11-21T09:02:43;101783.13;;;11.42;100.00
49216;BME280;45943;53.148;8.204;2023-11-21T09:05:09;101789.13;;;11.46;100.00
49216;BME280;45943;53.148;8.204;2023-11-21T09:07:37;101797.31;;;11.32;100.00
49216;BME280;45943;53.148;8.204;2023-11-21T09:10:04;101791.47;;;11.25;100.00
49216;BME280;45943;53.148;8.204;2023-11-21T09:12:33;101801.59;;;11.22;100.00
49216;BME280;45943;53.148;8.204;2023-11-21T09:15:04;101809.88;;;11.31;100.00
49216;BME280;45943;53.148;8.204;2023-11-21T09:17:31;101806.34;;;11.31;100.00
49216;BME280;45943;53.148;8.204;2023-11-21T09:19:58;101826.31;;;11.39;100.00
49216;BME280;45943;53.148;8.204;2023-11-21T09:22:24;101825.91;;;11.45;100.00
49216;BME280;45943;53.148;8.204;2023-11-21T09:24:51;101821.59;;;11.43;100.00
49216;BME280;45943;53.148;8.204;2023-11-21T09:27:17;101834.81;;;11.46;100.00
49216;BME280;45943;53.148;8.204;2023-11-21T09:29:44;101842.63;;;11.36;100.00
49216;BME280;45943;53.148;8.204;2023-11-21T09:32:11;101850.16;;;11.31;100.00
49216;BME280;45943;53.148;8.204;2023-11-21T09:34:40;101856.28;;;11.33;100.00
49216;BME280;45943;53.148;8.204;2023-11-21T09:37:05;101851.78;;;11.34;100.00
49216;BME280;45943;53.148;8.204;2023-11-21T09:39:32;101859.16;;;11.30;100.00
49216;BME280;45943;53.148;8.204;2023-11-21T09:44:39;101855.09;;;11.25;100.00
49216;BME280;45943;53.148;8.204;2023-11-21T09:47:16;101856.66;;;11.14;100.00
49216;BME280;45943;53.148;8.204;2023-11-21T09:49:46;101864.00;;;11.25;100.00
49216;BME280;45943;53.148;8.204;2023-11-21T09:52:22;101867.69;;;11.37;100.00
49216;BME280;45943;53.148;8.204;2023-11-21T09:54:54;101868.97;;;11.31;100.00
49216;BME280;45943;53.148;8.204;2023-11-21T09:57:24;101870.47;;;11.35;100.00
49216;BME280;45943;53.148;8.204;2023-11-21T09:59:51;101871.34;;;11.48;100.00
49216;BME280;45943;53.148;8.204;2023-11-21T10:02:22;101873.19;;;11.48;100.00
49216;BME280;45943;53.148;8.204;2023-11-21T10:04:52;101880.84;;;11.54;100.00
49216;BME280;45943;53.148;8.204;2023-11-21T10:07:18;101878.06;;;11.68;100.00
49216;BME280;45943;53.148;8.204;2023-11-21T10:09:46;101883.88;;;11.75;100.00
49216;BME280;45943;53.148;8.204;2023-11-21T10:12:16;101883.31;;;11.70;100.00
49216;BME280;45943;53.148;8.204;2023-11-21T10:14:43;101889.59;;;11.70;100.00
49216;BME280;45943;53.148;8.204;2023-11-21T10:17:15;101894.72;;;11.61;100.00
49216;BME280;45943;53.148;8.204;2023-11-21T10:19:45;101891.06;;;11.62;100.00
49216;BME280;45943;53.148;8.204;2023-11-21T10:22:13;101894.63;;;11.62;100.00
49216;BME280;45943;53.148;8.204;2023-11-21T10:24:40;101896.34;;;11.76;100.00
49216;BME280;45943;53.148;8.204;2023-11-21T10:27:08;101896.94;;;11.81;100.00
49216;BME280;45943;53.148;8.204;2023-11-21T10:29:34;101901.25;;;11.84;100.00
49216;BME280;45943;53.148;8.204;2023-11-21T10:32:01;101900.91;;;11.88;100.00
49216;BME280;45943;53.148;8.204;2023-11-21T10:34:29;101913.44;;;11.75;100.00
49216;BME280;45943;53.148;8.204;2023-11-21T10:36:55;101915.16;;;11.63;100.00
49216;BME280;45943;53.148;8.204;2023-11-21T10:39:24;101906.13;;;11.64;100.00
49216;BME280;45943;53.148;8.204;2023-11-21T10:41:54;101922.59;;;11.72;100.00
49216;BME280;45943;53.148;8.204;2023-11-21T10:44:20;101916.66;;;11.67;100.00
49216;BME280;45943;53.148;8.204;2023-11-21T10:46:48;101926.75;;;11.64;100.00
49216;BME280;45943;53.148;8.204;2023-11-21T10:49:24;101927.41;;;11.67;100.00
49216;BME280;45943;53.148;8.204;2023-11-21T10:51:52;101927.09;;;11.72;100.00
49216;BME280;45943;53.148;8.204;2023-11-21T10:54:19;101926.41;;;11.83;100.00
49216;BME280;45943;53.148;8.204;2023-11-21T10:56:49;101927.91;;;11.87;100.00
49216;BME280;45943;53.148;8.204;2023-11-21T10:59:18;101934.81;;;11.91;100.00
49216;BME280;45943;53.148;8.204;2023-11-21T11:01:46;101939.09;;;11.93;100.00
49216;BME280;45943;53.148;8.204;2023-11-21T11:04:18;101933.63;;;11.95;100.00
49216;BME280;45943;53.148;8.204;2023-11-21T11:06:50;101942.78;;;12.05;100.00
49216;BME280;45943;53.148;8.204;2023-11-21T11:09:19;101942.03;;;12.03;100.00
49216;BME280;45943;53.148;8.204;2023-11-21T11:11:46;101952.03;;;12.01;100.00
49216;BME280;45943;53.148;8.204;2023-11-21T11:14:12;101949.13;;;12.04;100.00
49216;BME280;45943;53.148;8.204;2023-11-21T11:16:39;101950.38;;;11.98;100.00
49216;BME280;45943;53.148;8.204;2023-11-21T11:19:10;101950.16;;;11.89;100.00
49216;BME280;45943;53.148;8.204;2023-11-21T11:24:36;101949.00;;;11.93;100.00
49216;BME280;45943;53.148;8.204;2023-11-21T11:27:24;101952.09;;;11.99;100.00
49216;BME280;45943;53.148;8.204;2023-11-21T11:35:17;101962.56;;;12.04;100.00
49216;BME280;45943;53.148;8.204;2023-11-21T11:37:44;101959.13;;;12.02;100.00
49216;BME280;45943;53.148;8.204;2023-11-21T11:40:11;101959.88;;;12.04;100.00
49216;BME280;45943;53.148;8.204;2023-11-21T11:42:37;101966.53;;;11.98;100.00
49216;BME280;45943;53.148;8.204;2023-11-21T11:45:17;101967.38;;;11.99;100.00
49216;BME280;45943;53.148;8.204;2023-11-21T11:47:45;101975.66;;;11.96;100.00
49216;BME280;45943;53.148;8.204;2023-11-21T11:50:13;101976.28;;;11.87;100.00
49216;BME280;45943;53.148;8.204;2023-11-21T11:52:43;101976.38;;;11.58;100.00
49216;BME280;45943;53.148;8.204;2023-11-21T11:55:10;101973.69;;;11.58;100.00
49216;BME280;45943;53.148;8.204;2023-11-21T11:57:44;101982.22;;;11.65;100.00
49216;BME280;45943;53.148;8.204;2023-11-21T12:00:16;101992.66;;;11.69;100.00
49216;BME280;45943;53.148;8.204;2023-11-21T12:02:48;101993.63;;;11.68;100.00
49216;BME280;45943;53.148;8.204;2023-11-21T12:05:18;101989.44;;;11.64;100.00
49216;BME280;45943;53.148;8.204;2023-11-21T12:07:46;101996.06;;;11.59;100.00
49216;BME280;45943;53.148;8.204;2023-11-21T12:10:19;101999.44;;;11.62;100.00
49216;BME280;45943;53.148;8.204;2023-11-21T12:12:51;102007.50;;;11.62;100.00
49216;BME280;45943;53.148;8.204;2023-11-21T12:15:18;102007.91;;;11.69;100.00
49216;BME280;45943;53.148;8.204;2023-11-21T12:17:52;102010.63;;;11.69;100.00
49216;BME280;45943;53.148;8.204;2023-11-21T12:20:26;102021.19;;;11.72;100.00
49216;BME280;45943;53.148;8.204;2023-11-21T12:22:54;102021.28;;;11.70;100.00
49216;BME280;45943;53.148;8.204;2023-11-21T12:25:26;102019.25;;;11.74;100.00
49216;BME280;45943;53.148;8.204;2023-11-21T12:27:55;102030.09;;;11.72;100.00
49216;BME280;45943;53.148;8.204;2023-11-21T12:30:22;102027.81;;;11.66;100.00
49216;BME280;45943;53.148;8.204;2023-11-21T12:33:01;102021.09;;;11.59;100.00
49216;BME280;45943;53.148;8.204;2023-11-21T12:35:29;102028.03;;;11.63;100.00
49216;BME280;45943;53.148;8.204;2023-11-21T12:37:56;102026.69;;;11.56;100.00
49216;BME280;45943;53.148;8.204;2023-11-21T12:40:26;102039.00;;;11.60;100.00
49216;BME280;45943;53.148;8.204;2023-11-21T12:42:53;102031.84;;;11.59;100.00
49216;BME280;45943;53.148;8.204;2023-11-21T12:45:22;102030.44;;;11.54;100.00
49216;BME280;45943;53.148;8.204;2023-11-21T12:47:52;102044.44;;;11.59;100.00
49216;BME280;45943;53.148;8.204;2023-11-21T12:50:24;102037.06;;;11.62;100.00
49216;BME280;45943;53.148;8.204;2023-11-21T12:52:54;102038.56;;;11.66;100.00
49216;BME280;45943;53.148;8.204;2023-11-21T12:55:24;102042.00;;;11.68;100.00